sensor_id;sensor_type;location;lat;lon;timestamp;P1;durP1;ratioP1;P2;durP2;ratioP2
30127;SDS011;16942;53.196;6.592;2023-09-30T00:01:41;16.13;;;3.80;;
30127;SDS011;16942;53.196;6.592;2023-09-30T00:04:09;13.70;;;3.03;;
30127;SDS011;16942;53.196;6.592;2023-09-30T00:06:35;12.03;;;3.30;;
30127;SDS011;16942;53.196;6.592;2023-09-30T00:09:01;11.43;;;3.67;;
30127;SDS011;16942;53.196;6.592;2023-09-30T00:11:28;18.97;;;4.33;;
30127;SDS011;16942;53.196;6.592;2023-09-30T00:13:54;15.97;;;4.03;;
30127;SDS011;16942;53.196;6.592;2023-09-30T00:16:20;17.87;;;3.90;;
30127;SDS011;16942;53.196;6.592;2023-09-30T00:18:46;13.37;;;4.00;;
30127;SDS011;16942;53.196;6.592;2023-09-30T00:21:12;17.83;;;3.80;;
30127;SDS011;16942;53.196;6.592;2023-09-30T00:23:40;16.27;;;4.27;;
30127;SDS011;16942;53.196;6.592;2023-09-30T00:26:06;12.17;;;3.80;;
30127;SDS011;16942;53.196;6.592;2023-09-30T00:28:32;14.20;;;3.60;;
30127;SDS011;16942;53.196;6.592;2023-09-30T00:30:58;10.57;;;3.50;;
30127;SDS011;16942;53.196;6.592;2023-09-30T00:33:23;24.50;;;4.33;;
30127;SDS011;16942;53.196;6.592;2023-09-30T00:35:50;15.20;;;3.57;;
30127;SDS011;16942;53.196;6.592;2023-09-30T00:38:16;11.73;;;3.57;;
30127;SDS011;16942;53.196;6.592;2023-09-30T00:40:48;19.63;;;4.27;;
30127;SDS011;16942;53.196;6.592;2023-09-30T00:43:19;13.53;;;3.73;;
30127;SDS011;16942;53.196;6.592;2023-09-30T00:45:45;17.70;;;3.67;;
30127;SDS011;16942;53.196;6.592;2023-09-30T00:48:11;11.17;;;3.63;;
30127;SDS011;16942;53.196;6.592;2023-09-30T00:50:37;9.80;;;3.90;;
30127;SDS011;16942;53.196;6.592;2023-09-30T00:53:05;18.33;;;4.50;;
30127;SDS011;16942;53.196;6.592;2023-09-30T00:55:32;11.53;;;3.80;;
30127;SDS011;16942;53.196;6.592;2023-09-30T00:57:58;16.23;;;5.10;;
30127;SDS011;16942;53.196;6.592;2023-09-30T01:00:24;17.57;;;4.10;;
30127;SDS011;16942;53.196;6.592;2023-09-30T01:02:51;15.87;;;4.10;;
30127;SDS011;16942;53.196;6.592;2023-09-30T01:05:18;11.50;;;3.70;;
30127;SDS011;16942;53.196;6.592;2023-09-30T01:07:44;15.13;;;4.10;;
30127;SDS011;16942;53.196;6.592;2023-09-30T01:10:10;16.60;;;4.83;;
30127;SDS011;16942;53.196;6.592;2023-09-30T01:12:36;14.43;;;5.17;;
30127;SDS011;16942;53.196;6.592;2023-09-30T01:15:02;14.87;;;4.73;;
30127;SDS011;16942;53.196;6.592;2023-09-30T01:17:31;11.73;;;4.13;;
30127;SDS011;16942;53.196;6.592;2023-09-30T01:19:57;15.93;;;3.87;;
30127;SDS011;16942;53.196;6.592;2023-09-30T01:22:28;13.23;;;4.30;;
30127;SDS011;16942;53.196;6.592;2023-09-30T01:24:55;14.60;;;3.87;;
30127;SDS011;16942;53.196;6.592;2023-09-30T01:27:21;19.33;;;4.77;;
30127;SDS011;16942;53.196;6.592;2023-09-30T01:29:47;14.30;;;4.80;;
30127;SDS011;16942;53.196;6.592;2023-09-30T01:32:13;16.73;;;4.43;;
30127;SDS011;16942;53.196;6.592;2023-09-30T01:34:39;14.57;;;4.47;;
30127;SDS011;16942;53.196;6.592;2023-09-30T01:37:05;13.73;;;4.20;;
30127;SDS011;16942;53.196;6.592;2023-09-30T01:39:31;11.27;;;3.87;;
30127;SDS011;16942;53.196;6.592;2023-09-30T01:41:58;16.33;;;4.60;;
30127;SDS011;16942;53.196;6.592;2023-09-30T01:44:24;13.53;;;4.20;;
30127;SDS011;16942;53.196;6.592;2023-09-30T01:46:51;17.03;;;4.13;;
30127;SDS011;16942;53.196;6.592;2023-09-30T01:49:17;17.50;;;3.80;;
30127;SDS011;16942;53.196;6.592;2023-09-30T01:51:43;10.07;;;3.57;;
30127;SDS011;16942;53.196;6.592;2023-09-30T01:54:10;13.93;;;4.13;;
30127;SDS011;16942;53.196;6.592;2023-09-30T01:56:36;12.67;;;4.37;;
30127;SDS011;16942;53.196;6.592;2023-09-30T01:59:02;14.40;;;4.30;;
30127;SDS011;16942;53.196;6.592;2023-09-30T02:01:29;11.10;;;4.77;;
30127;SDS011;16942;53.196;6.592;2023-09-30T02:03:55;9.10;;;3.80;;
30127;SDS011;16942;53.196;6.592;2023-09-30T02:06:21;11.97;;;3.63;;
30127;SDS011;16942;53.196;6.592;2023-09-30T02:08:47;12.50;;;3.73;;
30127;SDS011;16942;53.196;6.592;2023-09-30T02:11:13;10.57;;;3.83;;
30127;SDS011;16942;53.196;6.592;2023-09-30T02:13:39;16.20;;;3.73;;
30127;SDS011;16942;53.196;6.592;2023-09-30T02:16:05;12.80;;;4.20;;
30127;SDS011;16942;53.196;6.592;2023-09-30T02:18:31;21.50;;;4.10;;
30127;SDS011;16942;53.196;6.592;2023-09-30T02:20:57;12.07;;;4.47;;
30127;SDS011;16942;53.196;6.592;2023-09-30T02:23:24;12.20;;;3.53;;
30127;SDS011;16942;53.196;6.592;2023-09-30T02:25:50;13.87;;;4.30;;
30127;SDS011;16942;53.196;6.592;2023-09-30T02:28:17;13.80;;;4.13;;
30127;SDS011;16942;53.196;6.592;2023-09-30T02:30:43;16.03;;;4.60;;
30127;SDS011;16942;53.196;6.592;2023-09-30T02:33:09;12.83;;;4.23;;
30127;SDS011;16942;53.196;6.592;2023-09-30T02:35:35;13.67;;;4.07;;
30127;SDS011;16942;53.196;6.592;2023-09-30T02:38:04;16.03;;;4.13;;
30127;SDS011;16942;53.196;6.592;2023-09-30T02:40:30;10.47;;;3.43;;
30127;SDS011;16942;53.196;6.592;2023-09-30T02:42:56;12.80;;;3.70;;
30127;SDS011;16942;53.196;6.592;2023-09-30T02:45:22;12.47;;;3.80;;
30127;SDS011;16942;53.196;6.592;2023-09-30T02:47:48;8.53;;;3.50;;
30127;SDS011;16942;53.196;6.592;2023-09-30T02:50:14;15.03;;;3.67;;
30127;SDS011;16942;53.196;6.592;2023-09-30T02:52:40;10.10;;;4.50;;
30127;SDS011;16942;53.196;6.592;2023-09-30T02:55:10;11.47;;;3.83;;
30127;SDS011;16942;53.196;6.592;2023-09-30T02:57:36;9.87;;;3.63;;
30127;SDS011;16942;53.196;6.592;2023-09-30T03:00:03;13.10;;;4.03;;
30127;SDS011;16942;53.196;6.592;2023-09-30T03:02:39;11.13;;;3.60;;
30127;SDS011;16942;53.196;6.592;2023-09-30T03:05:05;9.60;;;3.90;;
30127;SDS011;16942;53.196;6.592;2023-09-30T03:07:32;12.13;;;3.50;;
30127;SDS011;16942;53.196;6.592;2023-09-30T03:09:58;8.53;;;3.60;;
30127;SDS011;16942;53.196;6.592;2023-09-30T03:12:29;11.83;;;3.93;;
30127;SDS011;16942;53.196;6.592;2023-09-30T03:14:56;10.27;;;3.20;;
30127;SDS011;16942;53.196;6.592;2023-09-30T03:17:23;11.27;;;3.53;;
30127;SDS011;16942;53.196;6.592;2023-09-30T03:19:50;10.83;;;3.47;;
30127;SDS011;16942;53.196;6.592;2023-09-30T03:22:16;11.40;;;3.93;;
30127;SDS011;16942;53.196;6.592;2023-09-30T03:24:42;8.97;;;3.07;;
30127;SDS011;16942;53.196;6.592;2023-09-30T03:27:08;8.83;;;3.10;;
30127;SDS011;16942;53.196;6.592;2023-09-30T03:29:37;13.50;;;4.37;;
30127;SDS011;16942;53.196;6.592;2023-09-30T03:32:03;8.80;;;3.17;;
30127;SDS011;16942;53.196;6.592;2023-09-30T03:34:30;10.87;;;2.93;;
30127;SDS011;16942;53.196;6.592;2023-09-30T03:36:55;7.27;;;2.97;;
30127;SDS011;16942;53.196;6.592;2023-09-30T03:39:24;10.83;;;3.17;;
30127;SDS011;16942;53.196;6.592;2023-09-30T03:41:52;15.47;;;2.80;;
30127;SDS011;16942;53.196;6.592;2023-09-30T03:44:19;16.47;;;3.37;;
30127;SDS011;16942;53.196;6.592;2023-09-30T03:46:45;12.93;;;4.33;;
30127;SDS011;16942;53.196;6.592;2023-09-30T03:49:11;15.77;;;3.70;;
30127;SDS011;16942;53.196;6.592;2023-09-30T03:51:38;11.17;;;3.80;;
30127;SDS011;16942;53.196;6.592;2023-09-30T03:54:04;13.63;;;3.40;;
30127;SDS011;16942;53.196;6.592;2023-09-30T03:56:31;12.00;;;3.67;;
30127;SDS011;16942;53.196;6.592;2023-09-30T03:58:57;11.10;;;3.57;;
30127;SDS011;16942;53.196;6.592;2023-09-30T04:01:23;12.77;;;3.33;;
30127;SDS011;16942;53.196;6.592;2023-09-30T04:03:50;16.20;;;3.90;;
30127;SDS011;16942;53.196;6.592;2023-09-30T04:06:19;11.20;;;3.30;;
30127;SDS011;16942;53.196;6.592;2023-09-30T04:08:45;13.57;;;3.70;;
30127;SDS011;16942;53.196;6.592;2023-09-30T04:11:11;7.83;;;3.27;;
30127;SDS011;16942;53.196;6.592;2023-09-30T04:13:42;8.43;;;3.07;;
30127;SDS011;16942;53.196;6.592;2023-09-30T04:16:09;14.37;;;3.70;;
30127;SDS011;16942;53.196;6.592;2023-09-30T04:18:35;10.63;;;3.83;;
30127;SDS011;16942;53.196;6.592;2023-09-30T04:21:01;13.40;;;3.77;;
30127;SDS011;16942;53.196;6.592;2023-09-30T04:23:27;18.33;;;3.90;;
30127;SDS011;16942;53.196;6.592;2023-09-30T04:25:53;16.37;;;4.97;;
30127;SDS011;16942;53.196;6.592;2023-09-30T04:28:19;8.23;;;3.40;;
30127;SDS011;16942;53.196;6.592;2023-09-30T04:30:49;14.20;;;4.37;;
30127;SDS011;16942;53.196;6.592;2023-09-30T04:33:16;17.07;;;3.97;;
30127;SDS011;16942;53.196;6.592;2023-09-30T04:35:49;18.07;;;3.97;;
30127;SDS011;16942;53.196;6.592;2023-09-30T04:38:15;16.10;;;4.70;;
30127;SDS011;16942;53.196;6.592;2023-09-30T04:40:41;9.90;;;4.10;;
30127;SDS011;16942;53.196;6.592;2023-09-30T04:43:09;11.63;;;3.93;;
30127;SDS011;16942;53.196;6.592;2023-09-30T04:45:36;12.93;;;4.67;;
30127;SDS011;16942;53.196;6.592;2023-09-30T04:48:02;10.27;;;4.50;;
30127;SDS011;16942;53.196;6.592;2023-09-30T04:50:29;14.60;;;4.90;;
30127;SDS011;16942;53.196;6.592;2023-09-30T04:52:55;13.73;;;4.67;;
30127;SDS011;16942;53.196;6.592;2023-09-30T04:55:23;15.53;;;5.37;;
30127;SDS011;16942;53.196;6.592;2023-09-30T04:57:49;12.10;;;5.20;;
30127;SDS011;16942;53.196;6.592;2023-09-30T05:00:15;17.27;;;5.43;;
30127;SDS011;16942;53.196;6.592;2023-09-30T05:02:43;15.10;;;5.50;;
30127;SDS011;16942;53.196;6.592;2023-09-30T05:05:10;15.17;;;5.57;;
30127;SDS011;16942;53.196;6.592;2023-09-30T05:07:36;15.57;;;5.53;;
30127;SDS011;16942;53.196;6.592;2023-09-30T05:10:02;12.13;;;4.77;;
30127;SDS011;16942;53.196;6.592;2023-09-30T05:12:35;17.97;;;5.83;;
30127;SDS011;16942;53.196;6.592;2023-09-30T05:15:01;18.80;;;5.83;;
30127;SDS011;16942;53.196;6.592;2023-09-30T05:17:28;19.30;;;6.30;;
30127;SDS011;16942;53.196;6.592;2023-09-30T05:19:56;14.97;;;6.63;;
30127;SDS011;16942;53.196;6.592;2023-09-30T05:22:22;16.57;;;5.37;;
30127;SDS011;16942;53.196;6.592;2023-09-30T05:24:52;14.30;;;5.43;;
30127;SDS011;16942;53.196;6.592;2023-09-30T05:27:19;19.53;;;5.27;;
30127;SDS011;16942;53.196;6.592;2023-09-30T05:29:45;18.70;;;5.87;;
30127;SDS011;16942;53.196;6.592;2023-09-30T05:32:11;21.57;;;6.90;;
30127;SDS011;16942;53.196;6.592;2023-09-30T05:34:39;19.30;;;5.97;;
30127;SDS011;16942;53.196;6.592;2023-09-30T05:37:05;17.50;;;6.47;;
30127;SDS011;16942;53.196;6.592;2023-09-30T05:39:31;17.20;;;6.27;;
30127;SDS011;16942;53.196;6.592;2023-09-30T05:42:00;17.90;;;6.63;;
30127;SDS011;16942;53.196;6.592;2023-09-30T05:44:27;16.03;;;6.77;;
30127;SDS011;16942;53.196;6.592;2023-09-30T05:46:54;16.63;;;6.37;;
30127;SDS011;16942;53.196;6.592;2023-09-30T05:49:20;15.73;;;7.50;;
30127;SDS011;16942;53.196;6.592;2023-09-30T05:51:46;24.93;;;7.63;;
30127;SDS011;16942;53.196;6.592;2023-09-30T05:54:12;19.37;;;7.63;;
30127;SDS011;16942;53.196;6.592;2023-09-30T05:56:38;17.20;;;7.27;;
30127;SDS011;16942;53.196;6.592;2023-09-30T05:59:08;19.90;;;7.83;;
30127;SDS011;16942;53.196;6.592;2023-09-30T06:01:34;18.30;;;7.00;;
30127;SDS011;16942;53.196;6.592;2023-09-30T06:04:01;15.00;;;7.10;;
30127;SDS011;16942;53.196;6.592;2023-09-30T06:06:27;23.23;;;8.23;;
30127;SDS011;16942;53.196;6.592;2023-09-30T06:08:55;19.77;;;7.73;;
30127;SDS011;16942;53.196;6.592;2023-09-30T06:11:23;22.33;;;7.43;;
30127;SDS011;16942;53.196;6.592;2023-09-30T06:13:50;29.30;;;9.07;;
30127;SDS011;16942;53.196;6.592;2023-09-30T06:16:17;15.83;;;7.70;;
30127;SDS011;16942;53.196;6.592;2023-09-30T06:18:43;20.60;;;8.07;;
30127;SDS011;16942;53.196;6.592;2023-09-30T06:21:10;20.90;;;8.60;;
30127;SDS011;16942;53.196;6.592;2023-09-30T06:23:36;17.03;;;7.27;;
30127;SDS011;16942;53.196;6.592;2023-09-30T06:26:02;17.50;;;6.83;;
30127;SDS011;16942;53.196;6.592;2023-09-30T06:28:28;19.03;;;7.50;;
30127;SDS011;16942;53.196;6.592;2023-09-30T06:30:56;19.77;;;7.77;;
30127;SDS011;16942;53.196;6.592;2023-09-30T06:33:22;20.23;;;7.97;;
30127;SDS011;16942;53.196;6.592;2023-09-30T06:35:48;17.77;;;8.00;;
30127;SDS011;16942;53.196;6.592;2023-09-30T06:38:20;18.33;;;7.40;;
30127;SDS011;16942;53.196;6.592;2023-09-30T06:40:46;22.13;;;9.10;;
30127;SDS011;16942;53.196;6.592;2023-09-30T06:43:16;14.90;;;7.60;;
30127;SDS011;16942;53.196;6.592;2023-09-30T06:45:42;19.87;;;9.10;;
30127;SDS011;16942;53.196;6.592;2023-09-30T06:48:10;21.13;;;8.20;;
30127;SDS011;16942;53.196;6.592;2023-09-30T06:50:43;28.13;;;8.00;;
30127;SDS011;16942;53.196;6.592;2023-09-30T06:53:09;18.63;;;7.43;;
30127;SDS011;16942;53.196;6.592;2023-09-30T06:55:38;23.80;;;8.53;;
30127;SDS011;16942;53.196;6.592;2023-09-30T06:58:05;23.77;;;7.67;;
30127;SDS011;16942;53.196;6.592;2023-09-30T07:00:35;16.67;;;7.93;;
30127;SDS011;16942;53.196;6.592;2023-09-30T07:03:01;15.80;;;7.63;;
30127;SDS011;16942;53.196;6.592;2023-09-30T07:05:28;18.30;;;8.07;;
30127;SDS011;16942;53.196;6.592;2023-09-30T07:07:54;16.23;;;7.40;;
30127;SDS011;16942;53.196;6.592;2023-09-30T07:10:20;38.97;;;10.33;;
30127;SDS011;16942;53.196;6.592;2023-09-30T07:12:46;19.07;;;7.57;;
30127;SDS011;16942;53.196;6.592;2023-09-30T07:15:12;21.87;;;9.07;;
30127;SDS011;16942;53.196;6.592;2023-09-30T07:17:39;19.63;;;7.23;;
30127;SDS011;16942;53.196;6.592;2023-09-30T07:20:05;14.33;;;7.10;;
30127;SDS011;16942;53.196;6.592;2023-09-30T07:22:35;14.40;;;7.47;;
30127;SDS011;16942;53.196;6.592;2023-09-30T07:25:01;26.73;;;8.53;;
30127;SDS011;16942;53.196;6.592;2023-09-30T07:27:28;40.10;;;11.43;;
30127;SDS011;16942;53.196;6.592;2023-09-30T07:29:54;18.60;;;6.77;;
30127;SDS011;16942;53.196;6.592;2023-09-30T07:32:20;14.43;;;6.90;;
30127;SDS011;16942;53.196;6.592;2023-09-30T07:34:50;24.53;;;7.53;;
30127;SDS011;16942;53.196;6.592;2023-09-30T07:37:16;15.33;;;6.87;;
30127;SDS011;16942;53.196;6.592;2023-09-30T07:39:43;16.07;;;8.23;;
30127;SDS011;16942;53.196;6.592;2023-09-30T07:42:09;16.87;;;7.00;;
30127;SDS011;16942;53.196;6.592;2023-09-30T07:44:35;16.57;;;6.80;;
30127;SDS011;16942;53.196;6.592;2023-09-30T07:47:02;20.27;;;7.73;;
30127;SDS011;16942;53.196;6.592;2023-09-30T07:49:29;16.00;;;7.27;;
30127;SDS011;16942;53.196;6.592;2023-09-30T07:51:55;19.53;;;9.43;;
30127;SDS011;16942;53.196;6.592;2023-09-30T07:54:21;16.53;;;7.97;;
30127;SDS011;16942;53.196;6.592;2023-09-30T07:56:47;14.90;;;7.80;;
30127;SDS011;16942;53.196;6.592;2023-09-30T07:59:14;16.23;;;7.67;;
30127;SDS011;16942;53.196;6.592;2023-09-30T08:01:41;14.33;;;7.53;;
30127;SDS011;16942;53.196;6.592;2023-09-30T08:04:07;26.77;;;9.50;;
30127;SDS011;16942;53.196;6.592;2023-09-30T08:06:33;33.63;;;8.23;;
30127;SDS011;16942;53.196;6.592;2023-09-30T08:08:59;15.97;;;7.10;;
30127;SDS011;16942;53.196;6.592;2023-09-30T08:11:25;14.53;;;7.73;;
30127;SDS011;16942;53.196;6.592;2023-09-30T08:13:55;20.23;;;7.10;;
30127;SDS011;16942;53.196;6.592;2023-09-30T08:16:24;17.77;;;7.57;;
30127;SDS011;16942;53.196;6.592;2023-09-30T08:18:50;18.20;;;7.53;;
30127;SDS011;16942;53.196;6.592;2023-09-30T08:21:16;16.13;;;6.87;;
30127;SDS011;16942;53.196;6.592;2023-09-30T08:23:42;17.83;;;6.50;;
30127;SDS011;16942;53.196;6.592;2023-09-30T08:26:09;16.10;;;7.27;;
30127;SDS011;16942;53.196;6.592;2023-09-30T08:28:35;12.13;;;5.90;;
30127;SDS011;16942;53.196;6.592;2023-09-30T08:31:01;13.87;;;6.20;;
30127;SDS011;16942;53.196;6.592;2023-09-30T08:33:28;16.17;;;6.40;;
30127;SDS011;16942;53.196;6.592;2023-09-30T08:35:55;11.63;;;6.40;;
30127;SDS011;16942;53.196;6.592;2023-09-30T08:38:23;19.63;;;6.17;;
30127;SDS011;16942;53.196;6.592;2023-09-30T08:40:49;14.40;;;5.20;;
30127;SDS011;16942;53.196;6.592;2023-09-30T08:43:18;13.07;;;5.60;;
30127;SDS011;16942;53.196;6.592;2023-09-30T08:45:45;13.37;;;5.07;;
30127;SDS011;16942;53.196;6.592;2023-09-30T08:48:12;13.13;;;5.40;;
30127;SDS011;16942;53.196;6.592;2023-09-30T08:50:39;14.47;;;5.37;;
30127;SDS011;16942;53.196;6.592;2023-09-30T08:53:08;12.97;;;4.73;;
30127;SDS011;16942;53.196;6.592;2023-09-30T08:55:35;14.30;;;5.60;;
30127;SDS011;16942;53.196;6.592;2023-09-30T08:58:03;13.90;;;4.23;;
30127;SDS011;16942;53.196;6.592;2023-09-30T09:00:29;18.77;;;5.03;;
30127;SDS011;16942;53.196;6.592;2023-09-30T09:02:55;16.30;;;5.47;;
30127;SDS011;16942;53.196;6.592;2023-09-30T09:05:21;10.27;;;3.93;;
30127;SDS011;16942;53.196;6.592;2023-09-30T09:07:47;11.13;;;4.70;;
30127;SDS011;16942;53.196;6.592;2023-09-30T09:10:15;12.60;;;4.83;;
30127;SDS011;16942;53.196;6.592;2023-09-30T09:12:41;10.43;;;4.53;;
30127;SDS011;16942;53.196;6.592;2023-09-30T09:15:08;14.33;;;4.50;;
30127;SDS011;16942;53.196;6.592;2023-09-30T09:17:45;12.30;;;4.50;;
30127;SDS011;16942;53.196;6.592;2023-09-30T09:20:12;12.73;;;4.40;;
30127;SDS011;16942;53.196;6.592;2023-09-30T09:22:45;9.67;;;3.87;;
30127;SDS011;16942;53.196;6.592;2023-09-30T09:25:11;13.30;;;4.23;;
30127;SDS011;16942;53.196;6.592;2023-09-30T09:27:38;14.43;;;4.10;;
30127;SDS011;16942;53.196;6.592;2023-09-30T09:30:14;13.80;;;3.30;;
30127;SDS011;16942;53.196;6.592;2023-09-30T09:32:50;12.87;;;2.97;;
30127;SDS011;16942;53.196;6.592;2023-09-30T09:35:19;11.20;;;3.53;;
30127;SDS011;16942;53.196;6.592;2023-09-30T09:37:53;11.27;;;3.87;;
30127;SDS011;16942;53.196;6.592;2023-09-30T09:40:22;16.87;;;3.93;;
30127;SDS011;16942;53.196;6.592;2023-09-30T09:42:49;14.20;;;4.13;;
30127;SDS011;16942;53.196;6.592;2023-09-30T09:45:19;9.33;;;2.93;;
30127;SDS011;16942;53.196;6.592;2023-09-30T09:47:45;9.40;;;3.43;;
30127;SDS011;16942;53.196;6.592;2023-09-30T09:50:11;15.47;;;3.73;;
30127;SDS011;16942;53.196;6.592;2023-09-30T09:52:39;10.90;;;3.60;;
30127;SDS011;16942;53.196;6.592;2023-09-30T09:55:05;11.40;;;3.50;;
30127;SDS011;16942;53.196;6.592;2023-09-30T09:57:32;13.60;;;3.70;;
30127;SDS011;16942;53.196;6.592;2023-09-30T09:59:59;16.53;;;4.60;;
30127;SDS011;16942;53.196;6.592;2023-09-30T10:02:30;12.17;;;3.67;;
30127;SDS011;16942;53.196;6.592;2023-09-30T10:04:56;7.10;;;2.87;;
30127;SDS011;16942;53.196;6.592;2023-09-30T10:07:26;16.67;;;3.73;;
30127;SDS011;16942;53.196;6.592;2023-09-30T10:09:53;9.73;;;2.80;;
30127;SDS011;16942;53.196;6.592;2023-09-30T10:12:19;8.70;;;2.80;;
30127;SDS011;16942;53.196;6.592;2023-09-30T10:14:48;6.13;;;2.20;;
30127;SDS011;16942;53.196;6.592;2023-09-30T10:17:14;8.97;;;2.50;;
30127;SDS011;16942;53.196;6.592;2023-09-30T10:22:45;11.60;;;2.50;;
30127;SDS011;16942;53.196;6.592;2023-09-30T10:31:16;9.13;;;2.03;;
30127;SDS011;16942;53.196;6.592;2023-09-30T10:36:28;7.83;;;2.07;;
30127;SDS011;16942;53.196;6.592;2023-09-30T10:38:54;11.63;;;2.97;;
30127;SDS011;16942;53.196;6.592;2023-09-30T10:41:54;8.47;;;2.40;;
30127;SDS011;16942;53.196;6.592;2023-09-30T10:46:57;6.33;;;1.97;;
30127;SDS011;16942;53.196;6.592;2023-09-30T10:51:53;7.90;;;1.80;;
30127;SDS011;16942;53.196;6.592;2023-09-30T10:54:38;7.13;;;2.00;;
30127;SDS011;16942;53.196;6.592;2023-09-30T10:57:04;11.27;;;2.30;;
30127;SDS011;16942;53.196;6.592;2023-09-30T10:59:30;7.27;;;1.80;;
30127;SDS011;16942;53.196;6.592;2023-09-30T11:01:56;4.97;;;1.60;;
30127;SDS011;16942;53.196;6.592;2023-09-30T11:04:22;6.23;;;1.70;;
30127;SDS011;16942;53.196;6.592;2023-09-30T11:06:48;9.03;;;1.90;;
30127;SDS011;16942;53.196;6.592;2023-09-30T11:09:21;4.93;;;1.80;;
30127;SDS011;16942;53.196;6.592;2023-09-30T11:11:47;6.63;;;1.60;;
30127;SDS011;16942;53.196;6.592;2023-09-30T11:14:17;6.07;;;1.92;;
30127;SDS011;16942;53.196;6.592;2023-09-30T11:16:43;6.47;;;1.80;;
30127;SDS011;16942;53.196;6.592;2023-09-30T11:19:11;8.23;;;2.08;;
30127;SDS011;16942;53.196;6.592;2023-09-30T11:21:38;4.28;;;1.80;;
30127;SDS011;16942;53.196;6.592;2023-09-30T11:24:04;8.23;;;2.10;;
30127;SDS011;16942;53.196;6.592;2023-09-30T11:26:31;9.38;;;1.65;;
30127;SDS011;16942;53.196;6.592;2023-09-30T11:29:04;10.15;;;2.15;;
30127;SDS011;16942;53.196;6.592;2023-09-30T11:31:30;9.93;;;1.65;;
30127;SDS011;16942;53.196;6.592;2023-09-30T11:34:00;6.25;;;1.25;;
30127;SDS011;16942;53.196;6.592;2023-09-30T11:36:29;4.63;;;1.42;;
30127;SDS011;16942;53.196;6.592;2023-09-30T11:38:56;7.25;;;1.80;;
30127;SDS011;16942;53.196;6.592;2023-09-30T11:41:22;7.50;;;1.48;;
30127;SDS011;16942;53.196;6.592;2023-09-30T11:43:58;6.03;;;1.38;;
30127;SDS011;16942;53.196;6.592;2023-09-30T11:46:29;8.83;;;1.37;;
30127;SDS011;16942;53.196;6.592;2023-09-30T11:49:00;5.23;;;1.53;;
30127;SDS011;16942;53.196;6.592;2023-09-30T11:51:26;7.47;;;1.80;;
30127;SDS011;16942;53.196;6.592;2023-09-30T11:53:53;5.30;;;1.60;;
30127;SDS011;16942;53.196;6.592;2023-09-30T11:56:20;9.93;;;2.67;;
30127;SDS011;16942;53.196;6.592;2023-09-30T11:58:47;4.63;;;1.90;;
30127;SDS011;16942;53.196;6.592;2023-09-30T12:01:14;7.70;;;1.53;;
30127;SDS011;16942;53.196;6.592;2023-09-30T12:03:41;9.10;;;1.70;;
30127;SDS011;16942;53.196;6.592;2023-09-30T12:06:07;10.97;;;1.60;;
30127;SDS011;16942;53.196;6.592;2023-09-30T12:08:35;5.97;;;1.57;;
30127;SDS011;16942;53.196;6.592;2023-09-30T12:11:03;10.40;;;2.43;;
30127;SDS011;16942;53.196;6.592;2023-09-30T12:13:29;5.37;;;1.83;;
30127;SDS011;16942;53.196;6.592;2023-09-30T12:15:55;12.10;;;1.60;;
30127;SDS011;16942;53.196;6.592;2023-09-30T12:18:22;8.83;;;2.30;;
30127;SDS011;16942;53.196;6.592;2023-09-30T12:20:52;7.33;;;1.43;;
30127;SDS011;16942;53.196;6.592;2023-09-30T12:23:18;10.60;;;1.95;;
30127;SDS011;16942;53.196;6.592;2023-09-30T12:25:45;8.52;;;1.60;;
30127;SDS011;16942;53.196;6.592;2023-09-30T12:28:11;7.00;;;1.50;;
30127;SDS011;16942;53.196;6.592;2023-09-30T12:30:39;9.13;;;2.13;;
30127;SDS011;16942;53.196;6.592;2023-09-30T12:33:05;7.82;;;1.98;;
30127;SDS011;16942;53.196;6.592;2023-09-30T12:35:31;8.27;;;1.60;;
30127;SDS011;16942;53.196;6.592;2023-09-30T12:37:58;7.03;;;1.70;;
30127;SDS011;16942;53.196;6.592;2023-09-30T12:40:24;5.88;;;1.38;;
30127;SDS011;16942;53.196;6.592;2023-09-30T12:42:50;6.70;;;1.63;;
30127;SDS011;16942;53.196;6.592;2023-09-30T12:45:16;7.68;;;1.88;;
30127;SDS011;16942;53.196;6.592;2023-09-30T12:47:43;5.90;;;1.52;;
30127;SDS011;16942;53.196;6.592;2023-09-30T12:50:09;6.63;;;1.80;;
30127;SDS011;16942;53.196;6.592;2023-09-30T12:52:35;10.88;;;1.85;;
30127;SDS011;16942;53.196;6.592;2023-09-30T12:55:03;10.35;;;1.70;;
30127;SDS011;16942;53.196;6.592;2023-09-30T12:57:30;5.65;;;1.50;;
30127;SDS011;16942;53.196;6.592;2023-09-30T12:59:56;4.82;;;1.63;;
30127;SDS011;16942;53.196;6.592;2023-09-30T13:02:25;7.50;;;1.63;;
30127;SDS011;16942;53.196;6.592;2023-09-30T13:04:51;6.25;;;1.85;;
30127;SDS011;16942;53.196;6.592;2023-09-30T13:07:19;6.93;;;1.48;;
30127;SDS011;16942;53.196;6.592;2023-09-30T13:09:45;7.00;;;1.60;;
30127;SDS011;16942;53.196;6.592;2023-09-30T13:12:11;6.80;;;1.40;;
30127;SDS011;16942;53.196;6.592;2023-09-30T13:14:38;8.90;;;1.50;;
30127;SDS011;16942;53.196;6.592;2023-09-30T13:17:04;8.32;;;1.60;;
30127;SDS011;16942;53.196;6.592;2023-09-30T13:19:30;5.32;;;1.50;;
30127;SDS011;16942;53.196;6.592;2023-09-30T13:21:58;11.45;;;2.05;;
30127;SDS011;16942;53.196;6.592;2023-09-30T13:24:24;6.88;;;1.88;;
30127;SDS011;16942;53.196;6.592;2023-09-30T13:26:51;6.22;;;1.55;;
30127;SDS011;16942;53.196;6.592;2023-09-30T13:29:18;7.07;;;1.90;;
30127;SDS011;16942;53.196;6.592;2023-09-30T13:31:44;4.65;;;1.50;;
30127;SDS011;16942;53.196;6.592;2023-09-30T13:34:10;8.55;;;2.00;;
30127;SDS011;16942;53.196;6.592;2023-09-30T13:36:40;4.47;;;1.65;;
30127;SDS011;16942;53.196;6.592;2023-09-30T13:39:06;8.05;;;1.90;;
30127;SDS011;16942;53.196;6.592;2023-09-30T13:41:35;5.60;;;1.48;;
30127;SDS011;16942;53.196;6.592;2023-09-30T13:44:02;6.15;;;1.65;;
30127;SDS011;16942;53.196;6.592;2023-09-30T13:46:28;8.20;;;1.95;;
30127;SDS011;16942;53.196;6.592;2023-09-30T13:48:55;7.63;;;1.98;;
30127;SDS011;16942;53.196;6.592;2023-09-30T13:51:21;6.95;;;2.63;;
30127;SDS011;16942;53.196;6.592;2023-09-30T13:53:48;6.15;;;1.63;;
30127;SDS011;16942;53.196;6.592;2023-09-30T13:56:14;7.25;;;1.92;;
30127;SDS011;16942;53.196;6.592;2023-09-30T13:58:40;6.13;;;1.75;;
30127;SDS011;16942;53.196;6.592;2023-09-30T14:01:07;5.55;;;1.60;;
30127;SDS011;16942;53.196;6.592;2023-09-30T14:03:33;6.30;;;1.70;;
30127;SDS011;16942;53.196;6.592;2023-09-30T14:05:59;5.95;;;2.05;;
30127;SDS011;16942;53.196;6.592;2023-09-30T14:08:25;7.90;;;1.85;;
30127;SDS011;16942;53.196;6.592;2023-09-30T14:10:51;4.03;;;1.40;;
30127;SDS011;16942;53.196;6.592;2023-09-30T14:13:17;5.40;;;1.65;;
30127;SDS011;16942;53.196;6.592;2023-09-30T14:15:44;7.45;;;2.17;;
30127;SDS011;16942;53.196;6.592;2023-09-30T14:18:10;6.65;;;1.73;;
30127;SDS011;16942;53.196;6.592;2023-09-30T14:20:36;5.07;;;1.90;;
30127;SDS011;16942;53.196;6.592;2023-09-30T14:23:02;5.47;;;1.52;;
30127;SDS011;16942;53.196;6.592;2023-09-30T14:25:28;6.70;;;2.00;;
30127;SDS011;16942;53.196;6.592;2023-09-30T14:27:54;6.97;;;1.80;;
30127;SDS011;16942;53.196;6.592;2023-09-30T14:30:21;4.85;;;1.50;;
30127;SDS011;16942;53.196;6.592;2023-09-30T14:32:49;6.10;;;1.50;;
30127;SDS011;16942;53.196;6.592;2023-09-30T14:35:15;4.95;;;1.83;;
30127;SDS011;16942;53.196;6.592;2023-09-30T14:37:41;5.80;;;1.70;;
30127;SDS011;16942;53.196;6.592;2023-09-30T14:40:07;11.95;;;4.18;;
30127;SDS011;16942;53.196;6.592;2023-09-30T14:42:36;5.45;;;1.60;;
30127;SDS011;16942;53.196;6.592;2023-09-30T14:45:02;6.80;;;2.00;;
30127;SDS011;16942;53.196;6.592;2023-09-30T14:47:28;5.97;;;2.03;;
30127;SDS011;16942;53.196;6.592;2023-09-30T14:49:54;3.75;;;1.20;;
30127;SDS011;16942;53.196;6.592;2023-09-30T14:52:20;6.78;;;1.60;;
30127;SDS011;16942;53.196;6.592;2023-09-30T14:54:47;4.88;;;1.85;;